Time;durP1;ratioP1;P1;durP2;ratioP2;P2;SDS_P1;SDS_P2;PMS_P1;PMS_P2;Temp;Humidity;BMP_temperature;BMP_pressure;BME280_temperature;BME280_humidity;BME280_pressure;Samples;Min_cycle;Max_cycle;Signal;HPM_P1;HPM_P2
2021/11/26 00:00:10;;;;;;;27.13;12.43;;;3.40;99.00;;;;;;5012074;28;20041;-78
2021/11/26 00:02:36;;;;;;;29.87;12.70;;;3.40;99.10;;;;;;5015845;28;20457;-78
2021/11/26 00:05:04;;;;;;;29.97;12.53;;;3.40;99.30;;;;;;5035167;28;20018;-78
2021/11/26 00:07:30;;;;;;;30.40;13.47;;;3.50;99.30;;;;;;5034237;28;20070;-78
2021/11/26 00:09:56;;;;;;;27.67;11.37;;;3.40;99.30;;;;;;5015985;28;20056;-78
2021/11/26 00:12:22;;;;;;;31.87;12.53;;;3.40;99.30;;;;;;5034163;28;20106;-78
2021/11/26 00:15:37;;;;;;;31.83;13.27;;;3.50;99.30;;;;;;5010462;28;20029;-78
2021/11/26 00:17:45;;;;;;;32.73;14.23;;;3.50;99.30;;;;;;5006392;28;20030;-79
2021/11/26 00:20:11;;;;;;;33.10;13.23;;;3.50;99.30;;;;;;5014668;28;20022;-78
2021/11/26 00:22:36;;;;;;;35.23;13.73;;;3.40;99.10;;;;;;5013695;28;20370;-79
2021/11/26 00:25:02;;;;;;;33.13;13.50;;;3.40;99.30;;;;;;4996771;28;20026;-78
2021/11/26 00:27:28;;;;;;;34.20;14.17;;;3.40;99.30;;;;;;5013452;28;20036;-78
2021/11/26 00:29:53;;;;;;;33.00;13.67;;;3.50;99.70;;;;;;5016687;28;20088;-78
2021/11/26 00:32:19;;;;;;;32.57;14.03;;;3.40;99.30;;;;;;5017265;28;20048;-78
2021/11/26 00:34:58;;;;;;;33.07;14.70;;;3.40;99.40;;;;;;5034867;28;20033;-77
2021/11/26 00:37:57;;;;;;;32.07;14.07;;;3.40;99.40;;;;;;5034927;28;20037;-78
2021/11/26 00:40:23;;;;;;;31.80;13.57;;;3.50;99.30;;;;;;5017108;28;20484;-77
2021/11/26 00:42:49;;;;;;;31.57;13.20;;;3.40;99.50;;;;;;5027478;28;20046;-77
2021/11/26 00:45:18;;;;;;;32.97;12.90;;;3.50;99.70;;;;;;5034481;28;20116;-78
2021/11/26 00:48:17;;;;;;;29.67;12.63;;;3.50;99.50;;;;;;5017002;28;20033;-78
2021/11/26 00:50:43;;;;;;;32.63;13.37;;;3.50;99.30;;;;;;5017398;28;20063;-78
2021/11/26 00:53:09;;;;;;;28.87;12.60;;;3.40;99.30;;;;;;5016760;28;20021;-78
2021/11/26 00:55:35;;;;;;;31.10;12.80;;;3.40;99.40;;;;;;5034249;28;20021;-83
2021/11/26 00:58:00;;;;;;;26.33;12.23;;;3.40;99.30;;;;;;5016611;28;20060;-78
2021/11/26 01:00:26;;;;;;;33.20;13.43;;;3.40;99.50;;;;;;5033896;28;20029;-78
2021/11/26 01:02:52;;;;;;;28.80;12.60;;;3.40;99.70;;;;;;5031255;28;20034;-78
2021/11/26 01:05:18;;;;;;;31.27;13.60;;;3.40;99.70;;;;;;5009471;28;20366;-78
2021/11/26 01:07:44;;;;;;;31.97;12.53;;;3.40;99.60;;;;;;5006537;28;20079;-78
2021/11/26 01:10:14;;;;;;;31.23;13.70;;;3.40;99.60;;;;;;5023409;28;20029;-78
2021/11/26 01:12:40;;;;;;;32.10;13.53;;;3.40;99.60;;;;;;5021761;28;20021;-78
2021/11/26 01:15:08;;;;;;;34.37;14.40;;;3.40;99.60;;;;;;5005623;28;20458;-78
2021/11/26 01:17:36;;;;;;;32.13;14.17;;;3.40;99.60;;;;;;5021331;28;20021;-78
2021/11/26 01:20:05;;;;;;;32.43;13.50;;;3.50;99.50;;;;;;5012175;28;20032;-78
2021/11/26 01:22:31;;;;;;;31.70;13.97;;;3.50;99.40;;;;;;5005897;28;20340;-78
2021/11/26 01:24:56;;;;;;;30.70;13.53;;;3.40;99.30;;;;;;5003818;28;20028;-78
2021/11/26 01:27:22;;;;;;;34.40;14.83;;;3.40;99.30;;;;;;5021931;28;20018;-78
2021/11/26 01:29:48;;;;;;;33.77;14.10;;;3.40;99.40;;;;;;5002683;28;20092;-79
2021/11/26 01:32:14;;;;;;;33.07;14.57;;;3.40;99.50;;;;;;5006224;28;20096;-78
2021/11/26 01:34:39;;;;;;;32.83;14.27;;;3.40;99.50;;;;;;5023074;28;20014;-78
2021/11/26 01:37:05;;;;;;;32.30;13.90;;;3.40;99.50;;;;;;5006410;28;20450;-80
2021/11/26 01:39:31;;;;;;;34.17;13.13;;;3.40;99.60;;;;;;5005236;28;20454;-78
2021/11/26 01:41:57;;;;;;;37.87;15.27;;;3.40;99.70;;;;;;5019848;28;20018;-78
2021/11/26 01:44:23;;;;;;;32.03;14.10;;;3.40;99.80;;;;;;5002647;28;20037;-78
2021/11/26 01:46:49;;;;;;;33.87;14.90;;;3.40;99.90;;;;;;5004784;28;20018;-78
2021/11/26 01:49:15;;;;;;;29.83;13.13;;;3.50;99.80;;;;;;5021135;28;20026;-80
2021/11/26 01:51:41;;;;;;;36.10;14.60;;;3.50;99.80;;;;;;5006148;28;20017;-77
2021/11/26 01:54:08;;;;;;;32.73;14.73;;;3.40;99.80;;;;;;5032583;28;20028;-77
2021/11/26 01:56:35;;;;;;;33.93;14.53;;;3.40;99.90;;;;;;5032776;28;20040;-77
2021/11/26 01:59:00;;;;;;;35.03;14.07;;;3.40;99.90;;;;;;5015125;28;20021;-77
2021/11/26 02:01:26;;;;;;;36.40;15.60;;;3.40;99.90;;;;;;5015206;28;20461;-77
2021/11/26 02:03:52;;;;;;;35.20;15.00;;;3.40;99.90;;;;;;5032007;28;20026;-77
2021/11/26 02:06:18;;;;;;;35.17;15.30;;;3.40;99.90;;;;;;5014705;28;20108;-77
2021/11/26 02:08:44;;;;;;;36.03;15.03;;;3.40;99.90;;;;;;5014558;28;20034;-78
2021/11/26 02:11:10;;;;;;;40.23;15.70;;;3.40;99.90;;;;;;5014738;28;20026;-77
2021/11/26 02:13:36;;;;;;;40.63;15.57;;;3.40;99.90;;;;;;5014825;28;20026;-95
2021/11/26 02:16:04;;;;;;;35.50;15.30;;;3.40;99.90;;;;;;5017056;28;20111;-78
2021/11/26 02:18:30;;;;;;;36.30;15.03;;;3.40;99.90;;;;;;5036643;28;20017;-77
2021/11/26 02:20:56;;;;;;;36.33;16.00;;;3.30;99.80;;;;;;5018192;28;20033;-77
2021/11/26 02:23:22;;;;;;;38.23;15.97;;;3.30;99.90;;;;;;5018600;28;20370;-77
2021/11/26 02:25:47;;;;;;;39.03;15.60;;;3.20;99.90;;;;;;5035704;28;20032;-77
2021/11/26 02:28:15;;;;;;;36.13;14.87;;;3.30;99.90;;;;;;5018643;28;20378;-77
2021/11/26 02:30:42;;;;;;;38.93;15.37;;;3.30;99.90;;;;;;5017603;28;20033;-78
2021/11/26 02:33:13;;;;;;;35.47;15.77;;;3.30;99.90;;;;;;5036050;28;20025;-78
2021/11/26 02:35:40;;;;;;;34.90;14.52;;;3.40;99.80;;;;;;5018111;28;20057;-79
2021/11/26 02:38:09;;;;;;;32.13;14.43;;;3.30;99.90;;;;;;5036289;28;20053;-78
2021/11/26 02:40:37;;;;;;;37.97;15.13;;;3.30;99.90;;;;;;5036099;28;20021;-78
2021/11/26 02:43:03;;;;;;;39.23;16.07;;;3.30;99.90;;;;;;5035723;28;20073;-78
2021/11/26 02:45:30;;;;;;;39.97;15.70;;;3.30;99.90;;;;;;5018694;28;20029;-78
2021/11/26 02:47:56;;;;;;;35.80;15.43;;;3.30;99.90;;;;;;5017837;28;20088;-78
2021/11/26 02:50:25;;;;;;;33.37;14.33;;;3.30;99.90;;;;;;5018321;28;20033;-78
2021/11/26 02:52:52;;;;;;;36.43;15.13;;;3.30;99.90;;;;;;5017697;28;20060;-78
2021/11/26 02:55:21;;;;;;;35.40;15.20;;;3.30;99.90;;;;;;5018236;28;20125;-77
2021/11/26 02:57:47;;;;;;;39.60;15.07;;;3.30;99.90;;;;;;5022995;28;20057;-79
2021/11/26 03:00:15;;;;;;;34.90;15.17;;;3.30;99.90;;;;;;4998462;28;20029;-78
2021/11/26 03:02:41;;;;;;;38.93;15.83;;;3.20;99.90;;;;;;5015193;28;20072;-79
2021/11/26 03:05:07;;;;;;;40.80;15.60;;;3.20;99.90;;;;;;4998297;28;20080;-79
2021/11/26 03:07:33;;;;;;;34.13;14.73;;;3.20;99.90;;;;;;4998515;28;20033;-78
2021/11/26 03:10:00;;;;;;;37.47;14.93;;;3.30;99.90;;;;;;4997751;28;20228;-78
2021/11/26 03:12:26;;;;;;;35.70;15.07;;;3.20;99.90;;;;;;4997777;28;20104;-78
2021/11/26 03:14:51;;;;;;;38.73;15.47;;;3.30;99.90;;;;;;4997727;28;20050;-78
2021/11/26 03:17:18;;;;;;;33.63;14.33;;;3.30;99.80;;;;;;4998186;28;20340;-78
2021/11/26 03:19:44;;;;;;;33.67;14.40;;;3.30;99.80;;;;;;4997479;28;20128;-79
2021/11/26 03:22:11;;;;;;;37.03;15.10;;;3.30;99.80;;;;;;4998224;28;20112;-78
2021/11/26 03:24:36;;;;;;;34.17;15.30;;;3.30;99.90;;;;;;5015508;28;20025;-78
2021/11/26 03:27:02;;;;;;;34.50;14.20;;;3.20;99.90;;;;;;5014535;28;20022;-78
2021/11/26 03:29:28;;;;;;;33.97;15.17;;;3.20;99.90;;;;;;4997663;28;20374;-78
2021/11/26 03:31:53;;;;;;;35.30;14.50;;;3.20;99.90;;;;;;4997430;28;20052;-78
2021/11/26 03:34:19;;;;;;;35.70;15.27;;;3.20;99.90;;;;;;4997925;28;20109;-78
2021/11/26 03:36:45;;;;;;;33.10;14.63;;;3.20;99.90;;;;;;4997187;28;20026;-79
2021/11/26 03:39:10;;;;;;;37.07;15.90;;;3.20;99.90;;;;;;4997537;28;20029;-78
2021/11/26 03:41:36;;;;;;;33.60;15.37;;;3.10;99.90;;;;;;4995168;28;20026;-78
2021/11/26 03:44:02;;;;;;;35.50;14.30;;;3.10;99.80;;;;;;5014320;28;20046;-78
2021/11/26 03:46:27;;;;;;;36.70;15.07;;;3.10;99.70;;;;;;4997554;28;20486;-77
2021/11/26 03:48:53;;;;;;;36.37;15.17;;;3.10;99.80;;;;;;5014526;28;20026;-78
2021/11/26 03:51:18;;;;;;;33.30;13.97;;;3.10;99.80;;;;;;4997560;28;20025;-78
2021/11/26 03:53:44;;;;;;;36.00;15.23;;;3.10;99.90;;;;;;4997048;28;20025;-79
2021/11/26 03:56:10;;;;;;;36.90;15.13;;;3.10;99.90;;;;;;4997594;28;20033;-78
2021/11/26 03:58:36;;;;;;;35.87;15.20;;;3.10;99.90;;;;;;4997338;28;20014;-78
2021/11/26 04:01:01;;;;;;;34.90;13.87;;;3.00;99.90;;;;;;4996653;28;20044;-77
2021/11/26 04:03:27;;;;;;;38.70;15.00;;;3.10;99.90;;;;;;4997475;28;20033;-78
2021/11/26 04:05:53;;;;;;;34.87;14.60;;;3.10;99.90;;;;;;5014301;28;20382;-79
2021/11/26 04:08:19;;;;;;;36.27;14.70;;;3.10;99.90;;;;;;5014782;28;20028;-77
2021/11/26 04:10:45;;;;;;;37.00;16.20;;;3.10;99.90;;;;;;5014119;28;20026;-78
2021/11/26 04:13:12;;;;;;;35.40;14.47;;;3.00;99.90;;;;;;4997242;28;20389;-77
2021/11/26 04:15:38;;;;;;;35.40;14.73;;;3.10;99.90;;;;;;5014354;28;20018;-77
2021/11/26 04:18:05;;;;;;;36.93;14.63;;;3.10;99.90;;;;;;5013955;28;20029;-78
2021/11/26 04:20:31;;;;;;;36.27;15.23;;;3.10;99.90;;;;;;4996821;28;20025;-78
2021/11/26 04:22:57;;;;;;;31.87;14.27;;;3.10;99.90;;;;;;4996306;28;20053;-78
2021/11/26 04:25:24;;;;;;;34.77;14.67;;;3.10;99.90;;;;;;4996842;28;20033;-77
2021/11/26 04:27:49;;;;;;;36.03;14.63;;;3.10;99.90;;;;;;5013770;28;20037;-78
2021/11/26 04:30:18;;;;;;;38.90;16.37;;;3.10;99.90;;;;;;5014302;28;20030;-78
2021/11/26 04:32:45;;;;;;;37.77;15.70;;;3.10;99.90;;;;;;5014021;28;20034;-78
2021/11/26 04:35:11;;;;;;;38.27;14.67;;;3.20;99.90;;;;;;4996585;28;20451;-78
2021/11/26 04:37:38;;;;;;;36.00;15.63;;;3.20;99.90;;;;;;4996622;28;20022;-78
2021/11/26 04:40:05;;;;;;;36.70;14.33;;;3.20;99.90;;;;;;4996276;28;20447;-78
2021/11/26 04:42:32;;;;;;;34.00;14.63;;;3.20;99.90;;;;;;5033359;28;20022;-77
2021/11/26 04:44:58;;;;;;;35.17;14.37;;;3.10;99.90;;;;;;5015642;28;20029;-78
2021/11/26 04:47:23;;;;;;;35.03;16.17;;;3.20;99.90;;;;;;5016400;28;20373;-79
2021/11/26 04:49:49;;;;;;;35.00;14.80;;;3.10;99.90;;;;;;5033184;28;20445;-78
2021/11/26 04:52:15;;;;;;;33.43;14.57;;;3.10;99.90;;;;;;5015790;28;20021;-78
2021/11/26 04:54:41;;;;;;;33.93;14.37;;;3.00;99.90;;;;;;5016076;28;20021;-78
2021/11/26 04:57:06;;;;;;;35.83;15.50;;;3.00;99.90;;;;;;5015493;28;20389;-77
2021/11/26 04:59:32;;;;;;;34.83;14.40;;;3.00;99.90;;;;;;5015586;28;20043;-77
2021/11/26 05:01:58;;;;;;;35.57;14.43;;;3.10;99.90;;;;;;5015342;28;20053;-78
2021/11/26 05:04:23;;;;;;;40.40;14.67;;;3.10;99.90;;;;;;5015724;28;20029;-78
2021/11/26 05:06:49;;;;;;;37.40;15.20;;;3.10;99.90;;;;;;5015316;28;20060;-78
2021/11/26 05:09:15;;;;;;;38.23;15.47;;;3.10;99.90;;;;;;5015580;28;20060;-77
2021/11/26 05:11:41;;;;;;;36.37;14.97;;;3.10;99.90;;;;;;5015756;28;20022;-77
2021/11/26 05:14:08;;;;;;;37.20;14.80;;;3.10;99.90;;;;;;5015478;28;20564;-77
2021/11/26 05:16:35;;;;;;;35.97;14.93;;;3.10;99.90;;;;;;5016034;28;20025;-81
2021/11/26 05:19:00;;;;;;;36.33;13.73;;;3.10;99.90;;;;;;5031682;28;20026;-77
2021/11/26 05:21:26;;;;;;;36.73;15.67;;;3.10;99.90;;;;;;5015622;28;20026;-77
2021/11/26 05:23:52;;;;;;;35.50;14.50;;;3.10;99.90;;;;;;5015083;28;20421;-77
2021/11/26 05:26:18;;;;;;;36.20;15.20;;;3.10;99.90;;;;;;5015526;28;20013;-77
2021/11/26 05:28:44;;;;;;;33.57;14.50;;;3.10;99.90;;;;;;5015296;28;20025;-77
2021/11/26 05:31:09;;;;;;;34.53;14.13;;;3.10;99.90;;;;;;5014911;28;20026;-77
2021/11/26 05:33:35;;;;;;;31.97;13.83;;;3.10;99.90;;;;;;5015691;28;20033;-77
2021/11/26 05:36:00;;;;;;;32.43;13.47;;;3.10;99.90;;;;;;5015222;28;20025;-77
2021/11/26 05:38:26;;;;;;;38.00;15.10;;;3.10;99.90;;;;;;5015403;28;20112;-77
2021/11/26 05:40:52;;;;;;;36.03;14.30;;;3.10;99.90;;;;;;5032496;28;20100;-77
2021/11/26 05:43:18;;;;;;;36.07;14.53;;;3.10;99.90;;;;;;5015116;28;20123;-78
2021/11/26 05:45:45;;;;;;;33.23;14.43;;;3.10;99.90;;;;;;5015530;28;20469;-76
2021/11/26 05:48:11;;;;;;;35.73;14.57;;;3.10;99.90;;;;;;5014765;28;20116;-77
2021/11/26 05:50:37;;;;;;;35.40;14.03;;;3.00;99.90;;;;;;5016670;28;20466;-77
2021/11/26 05:53:03;;;;;;;37.20;14.10;;;3.00;99.90;;;;;;5036653;28;20056;-77
2021/11/26 05:55:33;;;;;;;38.10;15.27;;;3.00;99.90;;;;;;5019218;28;20032;-77
2021/11/26 05:58:00;;;;;;;34.87;14.40;;;3.00;99.90;;;;;;5036299;28;20080;-77
2021/11/26 06:00:27;;;;;;;34.67;13.57;;;3.00;99.90;;;;;;5037027;28;20033;-77
2021/11/26 06:02:53;;;;;;;32.60;13.63;;;3.00;99.90;;;;;;5014114;28;20034;-77
2021/11/26 06:05:19;;;;;;;38.17;16.07;;;3.10;99.90;;;;;;5026077;28;20029;-77
2021/11/26 06:07:45;;;;;;;33.63;14.70;;;3.00;99.90;;;;;;5009110;28;20018;-76
2021/11/26 06:10:13;;;;;;;36.77;15.47;;;3.00;99.90;;;;;;5026288;28;20100;-77
2021/11/26 06:12:40;;;;;;;42.13;16.33;;;3.00;99.90;;;;;;5016783;28;20014;-77
2021/11/26 06:15:09;;;;;;;38.33;15.10;;;2.90;99.90;;;;;;5014365;28;20378;-78
2021/11/26 06:17:35;;;;;;;33.83;15.13;;;3.00;99.90;;;;;;5018487;28;20026;-77
2021/11/26 06:20:01;;;;;;;35.47;15.37;;;2.90;99.90;;;;;;5025073;28;20036;-77
2021/11/26 06:22:27;;;;;;;36.53;15.90;;;2.90;99.90;;;;;;5014852;28;20045;-78
2021/11/26 06:24:53;;;;;;;39.67;15.93;;;2.90;99.90;;;;;;5015756;28;20026;-78
2021/11/26 06:27:19;;;;;;;36.40;13.93;;;2.90;99.90;;;;;;5018064;28;20385;-77
2021/11/26 06:29:44;;;;;;;35.47;14.63;;;2.90;99.90;;;;;;5015124;28;20041;-79
2021/11/26 06:32:11;;;;;;;36.07;14.83;;;2.90;99.90;;;;;;5014482;28;20022;-77
2021/11/26 06:34:36;;;;;;;37.83;15.03;;;2.90;99.90;;;;;;5017346;28;20442;-78
2021/11/26 06:37:02;;;;;;;38.53;15.00;;;2.90;99.90;;;;;;5016041;28;20025;-77
2021/11/26 06:39:28;;;;;;;38.47;13.53;;;2.90;99.90;;;;;;5014015;28;20018;-78
2021/11/26 06:41:54;;;;;;;32.40;14.13;;;2.80;99.90;;;;;;5014456;28;20569;-79
2021/11/26 06:44:19;;;;;;;38.10;15.10;;;2.80;99.90;;;;;;5015937;28;20050;-77
2021/11/26 06:46:45;;;;;;;33.53;13.50;;;2.80;99.90;;;;;;5016016;28;20017;-78
2021/11/26 06:49:11;;;;;;;37.23;14.30;;;2.80;99.90;;;;;;5017332;28;20148;-77
2021/11/26 06:51:36;;;;;;;37.10;14.70;;;2.80;99.90;;;;;;5017616;28;20021;-77
2021/11/26 06:54:02;;;;;;;36.87;14.97;;;2.70;99.90;;;;;;5013675;28;20026;-78
2021/11/26 06:56:28;;;;;;;37.30;15.00;;;2.80;99.90;;;;;;5014249;28;20021;-77
2021/11/26 06:58:59;;;;;;;41.43;16.00;;;2.80;99.90;;;;;;5014777;28;20018;-78
2021/11/26 07:01:25;;;;;;;37.60;14.67;;;2.80;99.90;;;;;;5014998;28;20469;-79
2021/11/26 07:03:54;;;;;;;33.47;14.20;;;2.80;99.90;;;;;;5006051;28;20434;-79
2021/11/26 07:06:20;;;;;;;32.47;14.83;;;2.80;99.90;;;;;;5018627;28;20458;-77
2021/11/26 07:08:46;;;;;;;34.27;15.03;;;2.80;99.90;;;;;;4998442;28;20025;-77
2021/11/26 07:11:11;;;;;;;37.13;14.93;;;2.80;99.90;;;;;;4997947;28;20117;-78
2021/11/26 07:13:37;;;;;;;35.07;15.17;;;2.80;99.90;;;;;;4998424;28;20048;-77
2021/11/26 07:16:03;;;;;;;36.97;14.73;;;2.70;99.90;;;;;;4998084;28;20378;-78
2021/11/26 07:18:29;;;;;;;38.60;15.80;;;2.80;99.90;;;;;;4998291;28;20029;-78
2021/11/26 07:20:55;;;;;;;36.80;15.23;;;2.80;99.90;;;;;;4997911;28;20025;-84
2021/11/26 07:23:20;;;;;;;41.23;16.27;;;2.80;99.90;;;;;;4998204;28;20489;-77
2021/11/26 07:25:46;;;;;;;39.33;16.03;;;2.70;99.90;;;;;;4998300;28;20510;-78
2021/11/26 07:28:12;;;;;;;39.77;16.83;;;2.70;99.90;;;;;;5023815;28;20515;-78
2021/11/26 07:30:39;;;;;;;41.37;17.27;;;2.70;99.90;;;;;;5006964;28;20809;-77
2021/11/26 07:33:05;;;;;;;38.00;15.00;;;2.70;99.90;;;;;;5004942;28;20116;-78
2021/11/26 07:35:32;;;;;;;40.53;17.57;;;2.70;99.90;;;;;;5024287;28;20458;-79
2021/11/26 07:37:57;;;;;;;42.20;15.57;;;2.70;99.90;;;;;;5007517;28;20017;-78
2021/11/26 07:40:23;;;;;;;44.80;17.03;;;2.70;99.90;;;;;;5004751;28;20040;-77
2021/11/26 07:42:49;;;;;;;41.93;15.97;;;2.70;99.90;;;;;;5004971;28;20473;-77
2021/11/26 07:45:15;;;;;;;42.43;15.57;;;2.70;99.90;;;;;;5009019;28;20577;-77
2021/11/26 07:47:41;;;;;;;40.83;16.33;;;2.70;99.90;;;;;;5006688;28;20026;-76
2021/11/26 07:50:08;;;;;;;41.27;17.00;;;2.70;99.90;;;;;;5004230;28;20025;-77
2021/11/26 07:52:36;;;;;;;41.70;16.53;;;2.60;99.90;;;;;;5006224;28;20363;-77
2021/11/26 07:55:04;;;;;;;38.60;16.17;;;2.60;99.90;;;;;;5021207;28;20021;-78
2021/11/26 07:57:29;;;;;;;37.87;15.97;;;2.70;99.90;;;;;;5010634;28;20033;-77
2021/11/26 07:59:55;;;;;;;42.23;16.70;;;2.70;99.90;;;;;;5013535;28;20025;-88
2021/11/26 08:02:21;;;;;;;40.87;16.50;;;2.70;99.90;;;;;;4997243;28;20030;-77
2021/11/26 08:04:46;;;;;;;39.07;15.97;;;2.70;99.90;;;;;;4998944;28;20029;-77
2021/11/26 08:07:12;;;;;;;41.20;16.97;;;2.80;99.90;;;;;;5003087;28;20470;-81
2021/11/26 08:09:38;;;;;;;42.07;16.00;;;2.80;99.90;;;;;;5027901;28;20438;-77
2021/11/26 08:12:04;;;;;;;40.00;16.50;;;2.80;99.90;;;;;;5004417;28;20455;-78
2021/11/26 08:14:30;;;;;;;38.33;15.17;;;2.70;99.90;;;;;;5002945;28;20018;-77
2021/11/26 08:16:57;;;;;;;46.50;17.63;;;2.70;99.90;;;;;;5000936;28;20029;-89
2021/11/26 08:19:25;;;;;;;44.67;16.83;;;2.70;99.90;;;;;;4997314;28;20119;-78
2021/11/26 08:21:52;;;;;;;43.33;16.13;;;2.60;99.90;;;;;;5010006;28;20021;-77
2021/11/26 08:24:18;;;;;;;40.37;16.40;;;2.60;99.90;;;;;;5015407;28;20028;-76
2021/11/26 08:26:45;;;;;;;45.00;16.77;;;2.70;99.90;;;;;;5015801;28;20029;-76
2021/11/26 08:29:11;;;;;;;41.03;17.20;;;2.60;99.90;;;;;;5015512;28;20048;-78
2021/11/26 08:31:38;;;;;;;40.50;16.57;;;2.60;99.90;;;;;;5016081;28;20115;-77
2021/11/26 08:34:05;;;;;;;41.73;16.57;;;2.70;99.90;;;;;;5016380;28;20035;-76
2021/11/26 08:36:31;;;;;;;44.17;18.23;;;2.70;99.90;;;;;;5034038;28;20022;-76
2021/11/26 08:38:57;;;;;;;50.17;17.63;;;2.80;99.90;;;;;;5012459;28;20075;-78
2021/11/26 08:41:24;;;;;;;44.07;17.67;;;2.80;99.90;;;;;;5005671;28;20490;-77
2021/11/26 08:43:50;;;;;;;42.87;17.30;;;2.80;99.90;;;;;;5014047;28;20060;-77
2021/11/26 08:46:16;;;;;;;41.67;16.50;;;2.90;99.90;;;;;;4996179;28;20433;-78
2021/11/26 08:48:41;;;;;;;45.63;17.37;;;2.90;99.90;;;;;;5001696;28;20112;-78
2021/11/26 08:51:08;;;;;;;51.13;16.93;;;2.90;99.90;;;;;;5003731;28;20028;-78
2021/11/26 08:53:38;;;;;;;43.00;16.70;;;3.00;99.90;;;;;;5006832;28;20461;-78
2021/11/26 08:56:04;;;;;;;39.23;15.73;;;3.00;99.90;;;;;;5003702;28;20025;-78
2021/11/26 08:58:30;;;;;;;41.73;16.50;;;3.00;99.90;;;;;;5004178;28;20347;-78
2021/11/26 09:00:56;;;;;;;41.87;16.87;;;3.10;99.90;;;;;;5012765;28;20025;-78
2021/11/26 09:03:22;;;;;;;40.97;16.83;;;3.10;99.90;;;;;;5004330;28;20386;-78
2021/11/26 09:05:47;;;;;;;42.73;16.60;;;3.20;99.90;;;;;;5009392;28;20093;-78
2021/11/26 09:08:16;;;;;;;41.30;16.60;;;3.20;99.90;;;;;;5003803;28;20028;-78
2021/11/26 09:10:44;;;;;;;41.40;17.93;;;3.20;99.90;;;;;;5023767;28;20018;-78
2021/11/26 09:13:10;;;;;;;40.03;16.60;;;3.20;99.90;;;;;;5005763;28;20025;-77
2021/11/26 09:15:38;;;;;;;40.77;16.63;;;3.30;99.90;;;;;;5023254;28;20517;-78
2021/11/26 09:18:04;;;;;;;38.97;16.07;;;3.30;99.90;;;;;;5015448;28;20031;-77
2021/11/26 09:20:31;;;;;;;44.07;16.87;;;3.30;99.90;;;;;;5012062;28;20026;-78
2021/11/26 09:22:58;;;;;;;39.93;15.50;;;3.30;99.90;;;;;;5013826;28;20041;-77
2021/11/26 09:25:23;;;;;;;39.13;15.27;;;3.30;99.90;;;;;;5014663;28;20513;-78
2021/11/26 09:27:49;;;;;;;35.63;15.03;;;3.30;99.90;;;;;;5015515;28;20112;-78
2021/11/26 09:30:18;;;;;;;39.63;15.30;;;3.30;99.90;;;;;;5013348;28;20026;-78
2021/11/26 09:32:44;;;;;;;45.60;16.93;;;3.40;99.90;;;;;;5029240;28;20107;-77
2021/11/26 09:35:10;;;;;;;40.27;16.00;;;3.40;99.90;;;;;;5015114;28;20409;-78
2021/11/26 09:37:37;;;;;;;34.43;13.50;;;3.40;99.80;;;;;;5015621;28;20026;-77
2021/11/26 09:40:05;;;;;;;31.73;13.23;;;3.40;99.40;;;;;;5014883;28;20067;-78
2021/11/26 09:42:31;;;;;;;33.30;14.23;;;3.50;99.00;;;;;;5001022;28;20049;-78
2021/11/26 09:45:00;;;;;;;34.63;13.37;;;3.50;99.10;;;;;;4996091;28;20022;-78
2021/11/26 09:47:26;;;;;;;28.70;12.43;;;3.60;99.30;;;;;;4998833;28;20075;-77
2021/11/26 09:49:51;;;;;;;32.43;13.40;;;3.60;98.90;;;;;;5004581;28;20370;-76
2021/11/26 09:52:17;;;;;;;33.97;12.87;;;3.60;98.80;;;;;;5003894;28;20025;-78
2021/11/26 09:54:47;;;;;;;32.90;13.57;;;3.60;98.80;;;;;;5021040;28;20018;-78
2021/11/26 09:57:14;;;;;;;36.10;13.10;;;3.60;98.90;;;;;;5009061;28;20028;-78
2021/11/26 09:59:42;;;;;;;31.27;13.80;;;3.70;99.00;;;;;;5022129;28;20159;-78
2021/11/26 10:02:14;;;;;;;32.57;13.63;;;3.70;98.80;;;;;;5026521;28;20517;-77
2021/11/26 10:04:40;;;;;;;;;;;3.70;98.90;;;;;;5007267;28;20029;-78
2021/11/26 10:07:06;;;;;;;33.13;14.07;;;3.70;99.00;;;;;;5021151;28;19906;-78
2021/11/26 10:09:35;;;;;;;34.10;13.30;;;3.80;98.90;;;;;;5003891;28;20759;-78
2021/11/26 10:12:11;;;;;;;35.63;14.33;;;3.80;98.80;;;;;;5021464;28;20389;-85
2021/11/26 10:14:42;;;;;;;33.57;14.13;;;3.90;99.00;;;;;;5010014;28;20480;-79
2021/11/26 10:17:14;;;;;;;38.75;14.90;;;3.90;98.80;;;;;;5012110;28;20017;-77
2021/11/26 10:19:51;;;;;;;;;;;3.90;99.00;;;;;;5015621;28;20029;-79
2021/11/26 10:22:21;;;;;;;37.10;14.93;;;3.90;98.90;;;;;;5014670;28;19908;-79
2021/11/26 10:25:16;;;;;;;39.70;16.00;;;3.80;98.90;;;;;;5015024;28;20018;-78
2021/11/26 10:27:44;;;;;;;37.53;15.57;;;3.80;99.10;;;;;;5015570;28;20083;-78
2021/11/26 10:30:26;;;;;;;35.07;14.83;;;3.80;99.30;;;;;;5014706;28;20061;-81
2021/11/26 10:32:57;;;;;;;37.83;15.32;;;3.80;99.30;;;;;;5015046;28;20029;-79
2021/11/26 10:35:51;;;;;;;35.17;14.80;;;3.90;99.40;;;;;;5014788;28;20222;-79
2021/11/26 10:38:20;;;;;;;34.17;15.10;;;3.90;99.20;;;;;;5012776;28;20029;-79
2021/11/26 10:40:49;;;;;;;36.63;15.60;;;3.90;99.30;;;;;;5036193;28;20018;-79
2021/11/26 10:43:17;;;;;;;39.37;15.77;;;3.80;99.40;;;;;;5035650;28;20362;-79
2021/11/26 10:48:45;;;;;;;34.23;14.40;;;3.80;99.40;;;;;;5035861;28;20021;-79
2021/11/26 10:57:23;;;;;;;34.63;14.70;;;3.80;99.30;;;;;;5035790;28;20029;-79
2021/11/26 10:59:04;;;;;;;33.60;14.77;;;3.80;99.30;;;;;;5018233;28;20037;-93
2021/11/26 11:01:43;;;;;;;36.87;14.23;;;3.90;99.40;;;;;;4998890;28;20377;-83
2021/11/26 11:04:18;;;;;;;30.17;12.57;;;3.80;99.20;;;;;;5018652;28;20029;-80
2021/11/26 11:06:54;;;;;;;32.63;13.20;;;3.80;99.10;;;;;;5017820;28;20377;-80
2021/11/26 11:09:20;;;;;;;30.23;13.43;;;3.80;99.30;;;;;;5006530;28;20467;-81
2021/11/26 11:11:55;;;;;;;31.70;13.60;;;3.80;99.10;;;;;;5007668;28;20082;-80
2021/11/26 11:14:24;;;;;;;30.87;13.20;;;3.80;99.10;;;;;;5014756;28;20049;-80
2021/11/26 11:16:54;;;;;;;36.83;14.07;;;3.80;99.20;;;;;;4995737;28;20064;-82
2021/11/26 11:19:21;;;;;;;32.50;13.43;;;3.90;99.20;;;;;;5003714;28;20379;-82
2021/11/26 11:21:48;;;;;;;27.23;12.27;;;3.90;99.10;;;;;;5003175;28;20030;-80
2021/11/26 11:24:16;;;;;;;32.10;13.03;;;3.90;98.80;;;;;;5028281;28;20029;-81
2021/11/26 11:26:47;;;;;;;31.67;12.60;;;3.90;99.10;;;;;;5011609;28;20088;-80
2021/11/26 11:29:15;;;;;;;28.05;11.82;;;4.00;98.90;;;;;;5002364;28;20033;-80
2021/11/26 11:31:43;;;;;;;27.63;12.03;;;4.00;98.90;;;;;;5014645;28;20029;-79
2021/11/26 11:34:10;;;;;;;26.83;11.40;;;4.00;98.70;;;;;;5033777;28;20101;-88
2021/11/26 11:36:38;;;;;;;29.10;12.00;;;4.00;98.50;;;;;;5034108;28;20087;-80
2021/11/26 11:39:05;;;;;;;30.10;11.97;;;3.90;98.60;;;;;;5015989;28;20021;-81
2021/11/26 11:41:43;;;;;;;27.37;12.03;;;4.00;98.80;;;;;;5006883;28;20022;-80
2021/11/26 11:44:08;;;;;;;30.80;11.97;;;4.00;98.80;;;;;;5007564;28;20081;-82
2021/11/26 11:46:37;;;;;;;27.87;12.00;;;4.00;98.70;;;;;;5031882;28;20146;-82
2021/11/26 11:49:03;;;;;;;29.57;12.77;;;4.00;98.70;;;;;;5012018;28;20068;-80
2021/11/26 11:51:30;;;;;;;30.13;13.03;;;4.00;98.80;;;;;;5019707;28;20064;-80
2021/11/26 11:54:13;;;;;;;31.27;13.27;;;4.00;98.80;;;;;;5001760;28;20084;-81
2021/11/26 11:56:50;;;;;;;28.83;13.63;;;4.00;99.10;;;;;;5029133;28;20028;-79
2021/11/26 11:59:33;;;;;;;30.70;12.40;;;4.00;99.10;;;;;;5018340;28;20345;-80
2021/11/26 12:02:06;;;;;;;31.77;13.17;;;4.00;98.90;;;;;;5031892;28;20025;-79
2021/11/26 12:04:40;;;;;;;28.63;12.63;;;4.00;98.90;;;;;;5014063;28;20036;-81
2021/11/26 12:07:07;;;;;;;32.10;13.77;;;4.00;98.90;;;;;;4999390;28;20036;-79
2021/11/26 12:09:33;;;;;;;30.90;13.13;;;4.10;99.00;;;;;;5014402;28;20409;-79
2021/11/26 12:12:20;;;;;;;29.70;12.27;;;4.20;98.90;;;;;;5014331;28;20040;-82
2021/11/26 12:14:55;;;;;;;29.73;12.07;;;4.30;98.80;;;;;;5013381;28;20026;-78
2021/11/26 12:17:34;;;;;;;29.50;12.50;;;4.30;98.50;;;;;;4994099;28;20535;-79
2021/11/26 12:20:02;;;;;;;26.60;11.43;;;4.30;98.50;;;;;;5006073;28;20122;-80
2021/11/26 12:22:38;;;;;;;29.50;12.27;;;4.20;98.90;;;;;;4997964;28;20033;-80
2021/11/26 12:25:16;;;;;;;29.17;11.67;;;4.20;99.00;;;;;;4998486;28;20029;-80
2021/11/26 12:27:41;;;;;;;29.03;11.93;;;4.20;98.70;;;;;;5021730;28;20022;-80
2021/11/26 12:30:18;;;;;;;29.00;12.37;;;4.20;99.10;;;;;;5006512;28;20030;-89
2021/11/26 12:32:44;;;;;;;27.60;11.80;;;4.20;99.10;;;;;;5023273;28;20045;-78
2021/11/26 12:35:13;;;;;;;36.00;12.43;;;4.20;99.00;;;;;;5007426;28;20076;-79
2021/11/26 12:37:39;;;;;;;24.87;12.07;;;4.20;99.00;;;;;;5003472;28;20021;-79
2021/11/26 12:40:15;;;;;;;27.23;10.93;;;4.20;99.10;;;;;;5013706;28;20497;-80
2021/11/26 12:42:41;;;;;;;31.60;11.23;;;4.20;99.20;;;;;;4994462;28;20021;-79
2021/11/26 12:45:11;;;;;;;32.13;12.60;;;4.20;99.20;;;;;;4998797;28;20028;-89
2021/11/26 12:47:56;;;;;;;28.70;12.63;;;4.20;99.20;;;;;;5021586;28;20030;-81